Time;durP1;ratioP1;P1;durP2;ratioP2;P2;SDS_P1;SDS_P2;PMS_P1;PMS_P2;Temp;Humidity;BMP_temperature;BMP_pressure;BME280_temperature;BME280_humidity;BME280_pressure;Samples;Min_cycle;Max_cycle;Signal;HPM_P1;HPM_P2
2022/02/13 00:00:35;;;;;;;10.20;9.20;;;2.30;84.40;;;;;;5036035;28;20197;-88
2022/02/13 00:03:01;;;;;;;11.00;9.80;;;2.30;84.70;;;;;;5032118;28;20201;-88
2022/02/13 00:05:28;;;;;;;12.63;10.17;;;2.30;84.60;;;;;;5033029;28;20207;-88
2022/02/13 00:07:54;;;;;;;11.30;10.10;;;2.30;84.90;;;;;;5039718;28;20188;-88
2022/02/13 00:10:20;;;;;;;13.77;10.40;;;2.30;85.00;;;;;;5038354;28;20195;-89
2022/02/13 00:12:46;;;;;;;10.07;9.07;;;2.30;84.90;;;;;;5031765;28;20212;-89
2022/02/13 00:15:11;;;;;;;12.40;10.30;;;2.30;84.70;;;;;;5036039;28;20316;-88
2022/02/13 00:17:37;;;;;;;10.97;9.77;;;2.30;85.10;;;;;;5039081;28;20195;-87
2022/02/13 00:20:05;;;;;;;12.87;10.53;;;2.30;85.40;;;;;;5039041;28;20661;-88
2022/02/13 00:22:31;;;;;;;11.83;10.63;;;2.30;85.30;;;;;;5037450;28;20209;-89
2022/02/13 00:24:57;;;;;;;14.57;11.47;;;2.20;84.20;;;;;;5035256;28;20253;-88
2022/02/13 00:27:23;;;;;;;14.57;10.70;;;2.00;85.60;;;;;;5030353;28;20204;-88
2022/02/13 00:29:49;;;;;;;12.23;10.67;;;2.00;87.20;;;;;;5035349;28;20205;-87
2022/02/13 00:32:15;;;;;;;12.47;10.40;;;2.10;87.10;;;;;;5037639;28;20220;-87
2022/02/13 00:34:41;;;;;;;16.73;11.23;;;2.10;86.50;;;;;;5036612;28;20193;-89
2022/02/13 00:37:06;;;;;;;13.63;10.93;;;2.10;86.50;;;;;;5026425;28;20227;-87
2022/02/13 00:39:32;;;;;;;11.70;10.47;;;2.10;85.80;;;;;;5026473;28;20259;-88
2022/02/13 00:41:59;;;;;;;14.57;12.17;;;2.20;85.20;;;;;;5031589;28;20226;-89
2022/02/13 00:44:25;;;;;;;16.83;12.13;;;2.10;84.60;;;;;;5051870;28;20184;-87
2022/02/13 00:46:54;;;;;;;13.20;11.23;;;2.10;85.10;;;;;;5034087;28;20726;-89
2022/02/13 00:49:20;;;;;;;14.07;11.73;;;2.10;85.50;;;;;;5042735;28;20177;-86
2022/02/13 00:51:45;;;;;;;16.83;13.43;;;2.10;85.50;;;;;;5049988;28;20261;-86
2022/02/13 00:54:11;;;;;;;14.57;11.90;;;2.10;84.20;;;;;;5032721;28;20865;-88
2022/02/13 00:56:37;;;;;;;17.30;13.40;;;2.10;85.60;;;;;;5034989;28;20246;-87
2022/02/13 00:59:03;;;;;;;16.43;13.70;;;2.00;85.30;;;;;;5032794;28;20211;-88
2022/02/13 01:01:29;;;;;;;13.17;11.73;;;2.00;85.10;;;;;;5036024;28;20699;-87
2022/02/13 01:03:54;;;;;;;14.23;11.77;;;1.90;86.50;;;;;;5035416;28;20568;-88
2022/02/13 01:06:20;;;;;;;10.43;9.30;;;1.80;86.20;;;;;;5033057;28;20249;-88
2022/02/13 01:08:46;;;;;;;10.63;9.57;;;1.70;86.20;;;;;;5031402;28;20235;-89
2022/02/13 01:11:11;;;;;;;14.20;9.87;;;1.60;88.70;;;;;;5032874;28;20304;-88
2022/02/13 01:13:37;;;;;;;11.13;9.60;;;1.70;89.70;;;;;;5031131;28;20193;-90
2022/02/13 01:16:04;;;;;;;11.77;8.90;;;1.70;88.70;;;;;;5032564;28;20268;-88
2022/02/13 01:18:29;;;;;;;11.60;9.60;;;1.70;88.80;;;;;;5024719;28;20215;-90
2022/02/13 01:20:56;;;;;;;9.60;8.33;;;1.80;88.60;;;;;;5030249;28;20234;-90
2022/02/13 01:23:24;;;;;;;12.77;9.40;;;1.70;88.80;;;;;;5056706;28;20189;-90
2022/02/13 01:25:50;;;;;;;11.00;9.83;;;1.60;86.40;;;;;;5028261;28;20188;-90
2022/02/13 01:28:19;;;;;;;12.30;10.23;;;1.50;88.10;;;;;;5027513;28;20256;-89
2022/02/13 01:30:46;;;;;;;11.63;10.20;;;1.30;89.50;;;;;;5026091;28;20228;-88
2022/02/13 01:33:12;;;;;;;11.33;9.87;;;1.20;90.70;;;;;;5024059;28;20216;-89
2022/02/13 01:35:38;;;;;;;11.80;10.47;;;1.30;92.90;;;;;;5029911;28;20889;-90
2022/02/13 01:38:04;;;;;;;10.93;9.80;;;1.30;93.30;;;;;;5036768;28;20193;-88
2022/02/13 01:40:29;;;;;;;15.20;9.93;;;1.30;92.20;;;;;;5028998;28;20963;-89
2022/02/13 01:42:55;;;;;;;13.17;8.73;;;1.00;91.70;;;;;;5033095;28;20220;-89
2022/02/13 01:45:22;;;;;;;9.50;7.80;;;1.00;94.50;;;;;;5023091;28;20649;-88
2022/02/13 01:47:48;;;;;;;10.03;8.00;;;0.90;93.50;;;;;;5040168;28;20219;-89
2022/02/13 01:50:13;;;;;;;8.67;6.70;;;0.90;93.20;;;;;;5040153;28;20185;-88
2022/02/13 01:52:42;;;;;;;8.57;6.57;;;1.00;95.30;;;;;;5036285;28;20236;-88
2022/02/13 01:55:09;;;;;;;8.77;7.87;;;1.10;95.20;;;;;;5032726;28;20572;-88
2022/02/13 01:57:35;;;;;;;20.37;7.40;;;1.10;91.40;;;;;;5024882;28;20276;-89
2022/02/13 02:00:02;;;;;;;10.63;7.77;;;1.20;92.40;;;;;;5043376;28;20181;-86
2022/02/13 02:02:28;;;;;;;11.23;8.00;;;1.30;92.90;;;;;;5054418;28;20212;-87
2022/02/13 02:04:54;;;;;;;8.50;7.40;;;1.30;90.80;;;;;;5050523;28;20197;-88
2022/02/13 02:07:20;;;;;;;8.40;7.27;;;1.30;90.70;;;;;;5045719;28;20195;-87
2022/02/13 02:09:50;;;;;;;10.40;7.23;;;1.20;90.40;;;;;;5052890;28;20197;-87
2022/02/13 02:12:16;;;;;;;7.50;6.80;;;1.40;91.40;;;;;;5028338;28;20280;-88
2022/02/13 02:14:42;;;;;;;7.70;6.80;;;1.40;90.20;;;;;;5018778;28;20238;-86
2022/02/13 02:17:07;;;;;;;7.87;7.07;;;1.40;90.30;;;;;;5037523;28;20195;-87
2022/02/13 02:19:36;;;;;;;8.37;6.83;;;1.60;90.20;;;;;;5035990;28;21859;-89
2022/02/13 02:22:05;;;;;;;7.37;6.23;;;1.40;88.50;;;;;;5036361;28;20220;-89
2022/02/13 02:24:31;;;;;;;9.00;6.87;;;1.50;89.80;;;;;;5035995;28;20199;-88
2022/02/13 02:26:57;;;;;;;7.30;6.50;;;1.60;89.60;;;;;;5034501;28;20307;-90
2022/02/13 02:29:23;;;;;;;7.20;6.50;;;1.50;87.80;;;;;;5038835;28;20212;-89
2022/02/13 02:31:49;;;;;;;8.10;6.60;;;1.60;88.00;;;;;;5040671;28;20696;-89
2022/02/13 02:34:14;;;;;;;7.13;6.37;;;1.50;88.20;;;;;;5034078;28;20188;-88
2022/02/13 02:36:40;;;;;;;7.50;6.70;;;1.50;88.50;;;;;;5029672;28;20240;-88
2022/02/13 02:39:06;;;;;;;9.27;7.30;;;1.60;87.60;;;;;;5038478;28;20201;-88
2022/02/13 02:41:32;;;;;;;9.37;6.53;;;1.50;87.70;;;;;;5040284;28;20227;-88
2022/02/13 02:43:59;;;;;;;7.53;6.37;;;1.60;87.40;;;;;;5039255;28;20445;-89
2022/02/13 02:46:25;;;;;;;9.30;6.60;;;1.60;87.20;;;;;;5032590;28;20219;-88
2022/02/13 02:48:50;;;;;;;6.83;6.13;;;1.60;87.30;;;;;;5030421;28;20200;-86
2022/02/13 02:51:16;;;;;;;9.17;6.30;;;1.50;87.20;;;;;;5028491;28;20225;-89
2022/02/13 02:53:45;;;;;;;10.13;6.37;;;1.60;86.80;;;;;;5028636;28;20192;-89
2022/02/13 02:56:11;;;;;;;7.30;6.30;;;1.50;87.40;;;;;;5027781;28;20197;-89
2022/02/13 02:58:38;;;;;;;7.63;5.97;;;1.50;87.30;;;;;;5036824;28;20193;-89
2022/02/13 03:01:04;;;;;;;6.70;5.97;;;1.40;87.60;;;;;;5029614;28;20271;-89
2022/02/13 03:03:32;;;;;;;6.73;5.87;;;1.30;87.40;;;;;;5026138;28;20839;-89
2022/02/13 03:05:57;;;;;;;7.83;6.27;;;1.30;90.10;;;;;;5043829;28;20193;-89
2022/02/13 03:08:23;;;;;;;5.97;5.47;;;1.10;87.60;;;;;;5030557;28;20200;-88
2022/02/13 03:10:50;;;;;;;6.80;6.10;;;1.10;90.00;;;;;;5025652;28;20248;-87
2022/02/13 03:13:20;;;;;;;7.57;6.47;;;1.20;90.70;;;;;;5023703;28;20190;-89
2022/02/13 03:15:46;;;;;;;8.03;5.67;;;1.20;90.20;;;;;;5030142;28;20186;-87
2022/02/13 03:18:14;;;;;;;8.07;6.10;;;1.20;90.80;;;;;;5036859;28;20185;-87
2022/02/13 03:20:39;;;;;;;8.07;5.87;;;1.30;89.60;;;;;;5026252;28;20281;-88
2022/02/13 03:23:06;;;;;;;11.40;5.83;;;1.30;89.00;;;;;;5031313;28;20209;-89
2022/02/13 03:25:32;;;;;;;6.97;5.40;;;1.30;88.80;;;;;;5033657;28;20420;-88
2022/02/13 03:27:58;;;;;;;6.97;5.80;;;1.30;88.60;;;;;;5027183;28;20192;-88
2022/02/13 03:30:23;;;;;;;6.47;5.80;;;1.20;88.90;;;;;;5041286;28;20224;-86
2022/02/13 03:32:49;;;;;;;8.60;5.80;;;1.30;88.50;;;;;;5076873;28;20236;-88
2022/02/13 03:35:15;;;;;;;6.50;5.77;;;1.40;88.60;;;;;;5028889;28;20205;-89
2022/02/13 03:37:43;;;;;;;6.43;5.30;;;1.40;88.60;;;;;;5042520;28;20204;-87
2022/02/13 03:40:10;;;;;;;7.57;6.00;;;1.40;88.50;;;;;;5037901;28;20204;-87
2022/02/13 03:42:35;;;;;;;6.93;5.93;;;1.40;87.90;;;;;;5029300;28;20308;-88
2022/02/13 03:45:02;;;;;;;8.27;6.03;;;1.40;87.90;;;;;;5037728;28;20192;-89
2022/02/13 03:47:28;;;;;;;5.83;5.23;;;1.40;87.60;;;;;;5034692;28;20204;-89
2022/02/13 03:49:54;;;;;;;6.80;5.63;;;1.40;87.40;;;;;;5062595;28;20237;-89
2022/02/13 03:52:19;;;;;;;7.00;5.07;;;1.20;85.70;;;;;;5042792;28;20217;-89
2022/02/13 03:54:45;;;;;;;6.67;5.17;;;1.20;87.70;;;;;;5036342;28;20186;-90
2022/02/13 03:57:11;;;;;;;5.90;5.30;;;1.20;88.50;;;;;;5039392;28;20534;-88
2022/02/13 03:59:37;;;;;;;5.83;5.33;;;1.30;88.60;;;;;;5037119;28;20213;-89
2022/02/13 04:02:03;;;;;;;6.83;5.20;;;1.30;88.80;;;;;;5037655;28;20209;-89
2022/02/13 04:04:29;;;;;;;5.33;4.80;;;1.30;88.50;;;;;;5037008;28;20204;-88
2022/02/13 04:06:54;;;;;;;7.83;4.77;;;1.30;87.00;;;;;;5042287;28;20193;-89
2022/02/13 04:09:20;;;;;;;5.57;4.70;;;1.30;86.80;;;;;;5029096;28;20353;-89
2022/02/13 04:11:48;;;;;;;6.00;5.40;;;1.40;87.60;;;;;;5035155;28;20594;-89
2022/02/13 04:14:14;;;;;;;5.80;5.20;;;1.30;88.00;;;;;;5037859;28;20211;-90
2022/02/13 04:16:40;;;;;;;7.27;4.70;;;1.40;87.80;;;;;;5040361;28;20696;-89
2022/02/13 04:19:05;;;;;;;6.53;4.83;;;1.40;88.30;;;;;;5034859;28;20193;-89
2022/02/13 04:21:31;;;;;;;5.57;4.63;;;1.40;87.20;;;;;;5039718;28;20209;-88
2022/02/13 04:23:57;;;;;;;5.40;4.90;;;1.40;87.70;;;;;;5054469;28;20204;-88
2022/02/13 04:26:23;;;;;;;5.97;4.97;;;1.30;87.60;;;;;;5053276;28;20213;-89
2022/02/13 04:28:48;;;;;;;8.93;5.00;;;1.30;87.60;;;;;;5035015;28;20213;-89
2022/02/13 04:31:14;;;;;;;5.40;4.90;;;1.20;87.20;;;;;;5029173;28;20260;-90
2022/02/13 04:33:40;;;;;;;6.03;5.40;;;1.20;87.60;;;;;;5037227;28;20287;-88
2022/02/13 04:36:06;;;;;;;6.17;5.57;;;1.10;88.30;;;;;;5045984;28;20664;-89
2022/02/13 04:38:31;;;;;;;7.07;5.00;;;1.10;88.70;;;;;;5028423;28;20202;-88
2022/02/13 04:40:57;;;;;;;7.07;4.67;;;1.20;88.60;;;;;;5038912;28;20270;-89
2022/02/13 04:43:23;;;;;;;5.83;5.13;;;1.20;87.00;;;;;;5030010;28;20197;-89
2022/02/13 04:45:49;;;;;;;6.13;5.00;;;1.10;87.40;;;;;;5037628;28;20220;-88
2022/02/13 04:48:15;;;;;;;5.53;4.90;;;1.10;88.00;;;;;;5036071;28;20198;-88
2022/02/13 04:50:44;;;;;;;7.10;4.83;;;1.10;89.30;;;;;;5039191;28;20200;-88
2022/02/13 04:53:09;;;;;;;5.43;4.20;;;1.20;88.70;;;;;;5037664;28;20225;-90
2022/02/13 04:55:35;;;;;;;6.30;4.90;;;1.20;88.80;;;;;;5041143;28;20676;-89
2022/02/13 04:58:05;;;;;;;5.83;5.20;;;1.20;88.80;;;;;;5026951;28;20201;-89
2022/02/13 05:00:31;;;;;;;5.13;4.63;;;1.00;88.00;;;;;;5061560;28;20189;-89
2022/02/13 05:02:57;;;;;;;5.40;4.90;;;0.90;87.90;;;;;;5026588;28;20199;-87
2022/02/13 05:05:23;;;;;;;5.73;4.93;;;0.80;90.20;;;;;;5036116;28;20229;-89
2022/02/13 05:07:48;;;;;;;5.23;4.73;;;0.90;91.00;;;;;;5038470;28;20260;-88
2022/02/13 05:10:14;;;;;;;5.70;5.10;;;1.00;90.30;;;;;;5027471;28;20193;-89
2022/02/13 05:12:40;;;;;;;5.80;5.20;;;1.00;90.10;;;;;;5032802;28;20205;-89
2022/02/13 05:15:07;;;;;;;5.93;5.10;;;1.00;89.20;;;;;;5040907;28;20189;-89
2022/02/13 05:17:35;;;;;;;5.97;4.93;;;1.00;89.00;;;;;;5038208;28;20189;-88
2022/02/13 05:20:02;;;;;;;6.63;5.33;;;1.00;89.20;;;;;;5040581;28;20201;-88
2022/02/13 05:22:28;;;;;;;6.23;4.70;;;1.00;89.00;;;;;;5030224;28;20229;-89
2022/02/13 05:24:54;;;;;;;7.80;5.33;;;1.00;88.70;;;;;;5033900;28;20216;-90
2022/02/13 05:27:20;;;;;;;5.37;4.63;;;1.00;87.60;;;;;;5028962;28;20676;-90
2022/02/13 05:29:46;;;;;;;6.47;4.93;;;0.90;87.60;;;;;;5042943;28;20208;-89
2022/02/13 05:32:12;;;;;;;5.33;4.83;;;0.80;88.30;;;;;;5019748;28;20256;-88
2022/02/13 05:34:37;;;;;;;6.23;4.77;;;0.80;88.60;;;;;;5032907;28;20252;-88
2022/02/13 05:37:04;;;;;;;5.63;4.30;;;0.90;89.20;;;;;;5044633;28;20200;-88
2022/02/13 05:39:30;;;;;;;4.87;4.37;;;0.80;88.40;;;;;;5037252;28;20232;-88
2022/02/13 05:41:56;;;;;;;4.70;4.20;;;0.90;88.60;;;;;;5030185;28;20213;-89
2022/02/13 05:44:22;;;;;;;4.70;4.13;;;0.80;87.20;;;;;;5038185;28;20189;-88
2022/02/13 05:46:47;;;;;;;5.47;4.93;;;0.80;87.40;;;;;;5040155;28;20287;-89
2022/02/13 05:49:13;;;;;;;5.70;4.87;;;0.90;88.20;;;;;;5054518;28;20215;-87
2022/02/13 05:51:39;;;;;;;7.60;5.20;;;0.90;88.40;;;;;;5044475;28;20229;-88
2022/02/13 05:54:05;;;;;;;6.83;6.03;;;1.00;88.20;;;;;;5050260;28;20190;-89
2022/02/13 05:56:31;;;;;;;6.47;5.70;;;0.90;87.80;;;;;;5054421;28;20216;-89
2022/02/13 05:58:57;;;;;;;5.07;4.57;;;0.90;88.00;;;;;;5044782;28;20262;-88
2022/02/13 06:01:22;;;;;;;6.00;4.97;;;0.90;86.60;;;;;;5041725;28;20668;-88
2022/02/13 06:03:49;;;;;;;6.77;5.10;;;0.90;85.70;;;;;;5041263;28;20185;-89
2022/02/13 06:06:15;;;;;;;6.00;5.30;;;0.90;87.40;;;;;;5041766;28;20184;-89
2022/02/13 06:08:43;;;;;;;6.37;4.80;;;0.80;86.70;;;;;;5026619;28;20212;-89
2022/02/13 06:11:11;;;;;;;5.80;4.73;;;0.80;86.50;;;;;;5040212;28;20275;-89
2022/02/13 06:13:36;;;;;;;5.60;5.07;;;0.80;86.00;;;;;;5040122;28;20181;-88
2022/02/13 06:16:03;;;;;;;5.50;4.90;;;0.70;85.10;;;;;;5030584;28;20640;-88
2022/02/13 06:18:29;;;;;;;7.57;5.33;;;0.50;87.80;;;;;;5035730;28;20181;-88
2022/02/13 06:20:54;;;;;;;5.63;5.03;;;0.60;88.00;;;;;;5048475;28;20223;-87
2022/02/13 06:23:20;;;;;;;6.73;6.03;;;0.50;87.10;;;;;;5048155;28;20197;-88
2022/02/13 06:25:46;;;;;;;5.83;5.23;;;0.50;86.60;;;;;;5031251;28;20186;-88
2022/02/13 06:28:13;;;;;;;6.27;5.57;;;0.40;85.90;;;;;;5039284;28;20209;-88
2022/02/13 06:30:39;;;;;;;6.60;5.93;;;0.40;88.40;;;;;;5035092;28;20215;-87
2022/02/13 06:33:05;;;;;;;6.07;5.47;;;0.50;88.60;;;;;;5031105;28;20220;-88
2022/02/13 06:35:32;;;;;;;5.67;5.03;;;0.40;86.70;;;;;;5040425;28;20670;-89
2022/02/13 06:37:58;;;;;;;6.90;6.20;;;0.40;88.10;;;;;;5033607;28;20192;-89
2022/02/13 06:40:25;;;;;;;6.87;5.83;;;0.40;88.90;;;;;;5032216;28;20195;-90
2022/02/13 06:42:51;;;;;;;8.87;7.30;;;0.40;86.90;;;;;;5038642;28;20196;-88
2022/02/13 06:45:17;;;;;;;8.27;7.10;;;0.30;87.70;;;;;;5020731;28;20198;-90
2022/02/13 06:47:43;;;;;;;7.40;6.70;;;0.40;88.80;;;;;;5030892;28;20625;-89
2022/02/13 06:50:09;;;;;;;7.17;5.73;;;0.40;89.00;;;;;;5043435;28;20181;-89
2022/02/13 06:52:35;;;;;;;6.50;5.90;;;0.40;89.80;;;;;;5038032;28;21391;-87
2022/02/13 06:55:01;;;;;;;9.13;6.20;;;0.40;89.90;;;;;;5040481;28;20224;-90
2022/02/13 06:57:27;;;;;;;6.00;5.00;;;0.40;89.50;;;;;;5038989;28;20762;-90
2022/02/13 06:59:53;;;;;;;7.57;5.53;;;0.50;90.50;;;;;;5040742;28;20278;-90
2022/02/13 07:02:19;;;;;;;7.70;4.90;;;0.50;89.80;;;;;;5036971;28;20240;-89
2022/02/13 07:04:45;;;;;;;4.97;4.50;;;0.60;89.50;;;;;;5034150;28;20254;-90
2022/02/13 07:07:11;;;;;;;6.23;5.43;;;0.60;88.60;;;;;;5024363;28;20201;-88
2022/02/13 07:09:37;;;;;;;6.20;4.97;;;0.70;88.50;;;;;;5034458;28;20193;-89
2022/02/13 07:12:05;;;;;;;5.53;5.03;;;0.60;88.20;;;;;;5036170;28;20216;-87
2022/02/13 07:14:35;;;;;;;8.20;5.17;;;0.60;89.00;;;;;;5031841;28;20212;-88
2022/02/13 07:17:01;;;;;;;6.23;5.20;;;0.60;89.70;;;;;;5028509;28;20848;-87
2022/02/13 07:19:27;;;;;;;7.57;5.27;;;0.60;87.20;;;;;;5027410;28;20215;-89
2022/02/13 07:21:53;;;;;;;4.77;4.13;;;0.50;86.80;;;;;;5036344;28;20211;-88
2022/02/13 07:24:19;;;;;;;5.17;4.50;;;0.60;89.20;;;;;;5029028;28;20189;-89
2022/02/13 07:26:45;;;;;;;7.77;4.63;;;0.60;89.20;;;;;;5036773;28;20725;-87
2022/02/13 07:29:14;;;;;;;6.63;4.93;;;0.60;89.30;;;;;;5028167;28;20311;-88
2022/02/13 07:31:40;;;;;;;5.53;4.43;;;0.60;89.20;;;;;;5038591;28;20259;-88
2022/02/13 07:34:07;;;;;;;5.30;4.70;;;0.70;89.50;;;;;;5030684;28;20302;-86
2022/02/13 07:36:34;;;;;;;5.80;4.83;;;0.70;89.80;;;;;;5038266;28;20189;-88
2022/02/13 07:39:00;;;;;;;6.30;4.57;;;0.80;89.70;;;;;;5039787;28;20193;-88
2022/02/13 07:41:28;;;;;;;6.33;4.30;;;0.80;88.40;;;;;;5031344;28;20218;-87
2022/02/13 07:43:55;;;;;;;4.93;4.30;;;0.70;88.10;;;;;;5032611;28;20264;-87
2022/02/13 07:46:21;;;;;;;5.00;4.50;;;0.70;89.00;;;;;;5028546;28;20201;-87
2022/02/13 07:48:47;;;;;;;5.80;5.20;;;0.80;90.00;;;;;;5027137;28;20225;-85
2022/02/13 07:51:14;;;;;;;6.17;5.17;;;0.80;90.20;;;;;;5035660;28;20224;-89
2022/02/13 07:53:45;;;;;;;5.47;4.97;;;0.90;89.40;;;;;;5068171;28;20207;-86
2022/02/13 07:56:11;;;;;;;5.93;5.10;;;0.90;90.00;;;;;;5024400;28;20229;-87
2022/02/13 07:58:40;;;;;;;6.97;4.97;;;1.00;90.20;;;;;;5022477;28;20197;-88
2022/02/13 08:01:06;;;;;;;12.07;5.20;;;1.00;89.40;;;;;;5034494;28;20221;-87
2022/02/13 08:03:37;;;;;;;5.97;5.23;;;1.00;89.30;;;;;;5023022;28;20757;-87
2022/02/13 08:06:04;;;;;;;6.97;5.27;;;1.10;90.90;;;;;;5037769;28;20200;-90
2022/02/13 08:08:30;;;;;;;6.63;5.23;;;1.10;91.00;;;;;;5035331;28;20185;-88
2022/02/13 08:10:56;;;;;;;8.17;5.87;;;1.20;91.00;;;;;;5041378;28;20280;-88
2022/02/13 08:13:22;;;;;;;5.30;4.80;;;1.20;90.40;;;;;;5030545;28;20186;-89
2022/02/13 08:15:50;;;;;;;6.90;6.20;;;1.30;90.50;;;;;;5029598;28;20197;-89
2022/02/13 08:18:15;;;;;;;6.23;5.47;;;1.40;90.10;;;;;;5033436;28;20193;-89
2022/02/13 08:20:41;;;;;;;7.40;5.80;;;1.50;90.00;;;;;;5032801;28;20196;-88
2022/02/13 08:23:09;;;;;;;10.07;6.63;;;1.50;88.70;;;;;;5028786;28;20269;-88
2022/02/13 08:25:35;;;;;;;6.93;5.80;;;1.60;88.90;;;;;;5032387;28;20189;-89
2022/02/13 08:28:01;;;;;;;8.87;6.77;;;1.60;89.10;;;;;;5030218;28;20688;-90
2022/02/13 08:30:27;;;;;;;6.97;6.27;;;1.70;89.30;;;;;;5037826;28;20565;-88
2022/02/13 08:32:53;;;;;;;8.40;6.53;;;1.80;89.10;;;;;;5035235;28;20216;-89
2022/02/13 08:35:19;;;;;;;7.33;6.33;;;1.90;89.30;;;;;;5044236;28;20181;-88
2022/02/13 08:37:44;;;;;;;7.83;7.03;;;1.90;88.60;;;;;;5037067;28;20197;-89
2022/02/13 08:40:11;;;;;;;8.23;7.40;;;1.90;88.50;;;;;;5067826;28;20197;-88
2022/02/13 08:42:36;;;;;;;9.63;8.20;;;2.00;88.60;;;;;;5029789;28;20232;-90
2022/02/13 08:45:03;;;;;;;11.57;8.13;;;2.10;88.70;;;;;;5032966;28;20189;-88
2022/02/13 08:47:29;;;;;;;9.23;8.27;;;2.20;88.70;;;;;;5037847;28;20267;-89
2022/02/13 08:49:55;;;;;;;11.00;8.33;;;2.30;88.60;;;;;;5036726;28;20200;-88
2022/02/13 08:52:21;;;;;;;9.67;7.87;;;2.30;88.50;;;;;;5038666;28;20225;-88
2022/02/13 08:54:47;;;;;;;9.03;7.10;;;2.30;87.80;;;;;;5035040;28;20248;-88
2022/02/13 08:57:13;;;;;;;8.43;7.57;;;2.40;87.40;;;;;;5033306;28;20302;-89
2022/02/13 08:59:39;;;;;;;13.90;9.20;;;2.40;87.40;;;;;;5029112;28;20188;-90
2022/02/13 09:02:05;;;;;;;9.90;8.87;;;2.40;86.90;;;;;;5037340;28;20255;-90
2022/02/13 09:04:31;;;;;;;10.07;9.03;;;2.50;87.30;;;;;;5033664;28;20212;-89
2022/02/13 09:07:00;;;;;;;11.10;9.33;;;2.50;87.00;;;;;;5028925;28;20240;-88
2022/02/13 09:09:30;;;;;;;10.03;8.63;;;2.40;88.00;;;;;;5036369;28;20227;-89
2022/02/13 09:11:56;;;;;;;10.00;9.00;;;2.30;89.30;;;;;;5028329;28;20342;-89
2022/02/13 09:14:22;;;;;;;19.80;10.90;;;2.50;88.20;;;;;;5033319;28;20196;-89
2022/02/13 09:16:48;;;;;;;11.30;9.90;;;2.60;88.50;;;;;;5029630;28;20192;-90
2022/02/13 09:19:14;;;;;;;12.20;10.97;;;2.60;89.10;;;;;;5034805;28;20196;-88
2022/02/13 09:21:40;;;;;;;12.23;9.57;;;2.60;89.20;;;;;;5038870;28;20247;-89
2022/02/13 09:24:06;;;;;;;10.93;9.70;;;2.70;89.60;;;;;;5038860;28;20295;-87
2022/02/13 09:26:32;;;;;;;11.47;9.73;;;2.60;90.50;;;;;;5025459;28;20249;-86
2022/02/13 09:28:59;;;;;;;11.67;9.00;;;2.60;92.80;;;;;;5031988;28;20213;-88
2022/02/13 09:31:26;;;;;;;10.73;9.70;;;2.50;92.60;;;;;;5039158;28;20208;-89
2022/02/13 09:33:52;;;;;;;9.63;8.63;;;2.50;91.10;;;;;;5012356;28;20635;-88
2022/02/13 09:36:19;;;;;;;14.10;8.97;;;2.60;91.90;;;;;;5049840;28;20260;-89
2022/02/13 09:38:46;;;;;;;9.90;8.60;;;2.70;90.20;;;;;;5051035;28;20181;-87
2022/02/13 09:41:19;;;;;;;10.83;9.20;;;2.80;89.50;;;;;;5040361;28;20216;-90
2022/02/13 09:43:45;;;;;;;9.80;8.77;;;2.90;90.10;;;;;;5026411;28;20193;-88
2022/02/13 09:46:15;;;;;;;10.60;9.00;;;3.10;88.50;;;;;;5024503;28;20216;-87
2022/02/13 09:48:41;;;;;;;11.30;9.73;;;3.10;87.60;;;;;;5026812;28;20655;-89
2022/02/13 09:51:07;;;;;;;9.77;8.77;;;3.20;88.20;;;;;;5021300;28;20236;-88
2022/02/13 09:53:36;;;;;;;11.30;9.47;;;3.30;87.70;;;;;;5029182;28;20189;-88
2022/02/13 09:56:06;;;;;;;11.17;8.60;;;3.60;85.10;;;;;;5024177;28;20198;-88
2022/02/13 09:58:33;;;;;;;9.83;8.87;;;3.90;84.00;;;;;;5032994;28;20463;-89
2022/02/13 10:01:07;;;;;;;10.53;9.43;;;4.00;84.00;;;;;;5035937;28;20212;-89
2022/02/13 10:03:38;;;;;;;10.43;9.43;;;4.10;85.50;;;;;;5027161;28;20177;-88
2022/02/13 10:06:13;;;;;;;9.63;8.70;;;4.10;84.10;;;;;;5037506;28;20193;-88
2022/02/13 10:08:41;;;;;;;11.13;9.40;;;4.30;84.00;;;;;;5029188;28;20526;-89
2022/02/13 10:11:28;;;;;;;13.03;9.67;;;4.70;82.70;;;;;;5047381;28;20219;-87
2022/02/13 10:14:12;;;;;;;10.67;9.57;;;4.90;82.20;;;;;;5028058;28;20189;-88
2022/02/13 10:16:45;;;;;;;10.67;9.43;;;4.80;81.40;;;;;;5056492;28;20276;-87
2022/02/13 10:19:19;;;;;;;10.73;9.73;;;5.00;82.00;;;;;;5022989;28;20216;-88
2022/02/13 10:21:46;;;;;;;11.40;10.10;;;5.20;81.70;;;;;;5026432;28;20228;-89
2022/02/13 10:24:18;;;;;;;12.33;10.70;;;5.50;80.90;;;;;;5027899;28;20192;-90
2022/02/13 10:26:45;;;;;;;12.83;10.27;;;5.80;79.10;;;;;;5029335;28;20284;-88
2022/02/13 10:29:11;;;;;;;14.63;10.80;;;5.90;77.50;;;;;;5025044;28;20205;-87
2022/02/13 10:31:41;;;;;;;12.00;10.30;;;5.80;78.30;;;;;;5024445;28;20225;-88
2022/02/13 10:34:08;;;;;;;11.40;10.23;;;6.20;75.80;;;;;;5020716;28;20185;-88
2022/02/13 10:36:43;;;;;;;11.17;10.07;;;6.50;74.60;;;;;;5021527;28;20186;-88
2022/02/13 10:39:20;;;;;;;16.23;11.17;;;6.70;73.30;;;;;;5026130;28;20193;-89
2022/02/13 10:41:46;;;;;;;10.97;9.97;;;6.80;72.60;;;;;;5024656;28;20294;-86
2022/02/13 10:44:12;;;;;;;12.00;10.80;;;7.00;71.70;;;;;;5027454;28;20193;-89
2022/02/13 10:46:40;;;;;;;12.00;10.80;;;7.20;71.10;;;;;;5025639;28;20268;-87
2022/02/13 10:49:07;;;;;;;11.97;9.83;;;7.30;70.20;;;;;;5040265;28;20190;-87
2022/02/13 10:51:34;;;;;;;12.73;10.33;;;7.20;71.30;;;;;;5023115;28;20225;-89
2022/02/13 10:54:07;;;;;;;11.27;9.37;;;7.30;70.10;;;;;;5030228;28;20185;-88
2022/02/13 10:56:37;;;;;;;11.50;9.93;;;7.40;69.30;;;;;;5031403;28;20177;-88
2022/02/13 10:59:13;;;;;;;11.97;10.30;;;7.40;69.50;;;;;;5026443;28;20572;-89
2022/02/13 11:01:41;;;;;;;12.47;10.27;;;7.40;70.30;;;;;;5022137;28;20212;-88
2022/02/13 11:04:06;;;;;;;11.20;10.07;;;7.70;69.20;;;;;;5036132;28;20197;-89
2022/02/13 11:06:37;;;;;;;11.67;10.23;;;8.20;67.60;;;;;;5033453;28;20192;-89
2022/02/13 11:09:15;;;;;;;11.97;10.87;;;8.40;67.70;;;;;;5026576;28;20959;-89
2022/02/13 11:11:42;;;;;;;11.73;10.53;;;8.70;66.10;;;;;;5036035;28;20312;-89
2022/02/13 11:14:07;;;;;;;12.17;10.97;;;8.80;65.60;;;;;;5030377;28;20217;-88
2022/02/13 11:16:36;;;;;;;11.97;10.87;;;9.10;64.20;;;;;;5030104;28;20544;-88
2022/02/13 11:19:11;;;;;;;12.10;10.03;;;9.30;64.60;;;;;;5029524;28;20185;-90
2022/02/13 11:21:38;;;;;;;11.23;10.13;;;9.70;63.30;;;;;;5034076;28;20917;-87
2022/02/13 11:24:06;;;;;;;12.50;10.30;;;9.80;63.60;;;;;;5030214;28;20222;-89
2022/02/13 11:26:43;;;;;;;11.07;10.07;;;9.90;62.80;;;;;;5030853;28;20755;-88
2022/02/13 11:29:10;;;;;;;17.73;10.80;;;10.00;61.90;;;;;;5022135;28;20610;-89
2022/02/13 11:31:51;;;;;;;11.30;10.20;;;10.20;60.60;;;;;;5028897;28;20242;-89
2022/02/13 11:34:22;;;;;;;11.77;10.77;;;10.50;60.00;;;;;;5024337;28;20188;-88
2022/02/13 11:36:50;;;;;;;13.07;11.43;;;10.70;59.30;;;;;;5031390;28;20404;-89
2022/02/13 11:39:37;;;;;;;11.60;10.50;;;10.80;58.50;;;;;;5035909;28;20185;-88
2022/02/13 11:42:11;;;;;;;11.77;10.57;;;10.70;58.50;;;;;;5030934;28;20317;-90
2022/02/13 11:44:46;;;;;;;13.47;11.00;;;10.70;59.20;;;;;;5035478;28;20198;-89
2022/02/13 11:47:18;;;;;;;12.77;11.13;;;10.80;59.10;;;;;;5022296;28;20288;-88
2022/02/13 11:52:36;;;;;;;11.20;10.13;;;11.40;57.20;;;;;;5026518;28;20227;-89
2022/02/13 11:55:07;;;;;;;11.57;10.47;;;11.60;56.90;;;;;;5031856;28;20298;-89
2022/02/13 11:57:33;;;;;;;11.20;10.00;;;11.60;56.20;;;;;;5026438;28;20198;-89
2022/02/13 11:59:58;;;;;;;11.10;9.90;;;11.60;55.00;;;;;;5049133;28;20218;-88
2022/02/13 12:02:30;;;;;;;14.47;11.40;;;11.70;56.20;;;;;;5049834;28;20192;-87
2022/02/13 12:05:11;;;;;;;12.40;10.60;;;11.80;56.40;;;;;;5026432;28;20196;-88
2022/02/13 12:07:45;;;;;;;11.40;10.20;;;12.30;54.80;;;;;;5035727;28;20264;-88
2022/02/13 12:10:26;;;;;;;12.10;10.80;;;12.70;53.30;;;;;;5029759;28;20607;-89
2022/02/13 12:13:03;;;;;;;12.07;9.40;;;12.80;53.50;;;;;;5032567;28;20215;-88
2022/02/13 12:15:29;;;;;;;11.40;10.20;;;12.90;51.70;;;;;;5033763;28;20707;-89
2022/02/13 12:18:11;;;;;;;14.20;10.07;;;12.60;53.10;;;;;;5039822;28;20184;-90
2022/02/13 12:20:41;;;;;;;11.10;10.00;;;12.80;52.10;;;;;;5041301;28;20247;-88
2022/02/13 12:23:12;;;;;;;13.30;12.03;;;13.00;51.00;;;;;;5033620;28;20202;-89
2022/02/13 12:25:40;;;;;;;12.40;11.03;;;13.30;51.70;;;;;;5035107;28;20181;-88
2022/02/13 12:28:07;;;;;;;11.80;10.77;;;13.60;51.30;;;;;;5030062;28;20280;-90
2022/02/13 12:30:34;;;;;;;11.13;10.03;;;13.60;50.80;;;;;;5032091;28;20197;-90
2022/02/13 12:33:02;;;;;;;14.43;10.07;;;13.40;49.60;;;;;;5036402;28;20224;-90
2022/02/13 12:35:35;;;;;;;10.93;9.83;;;13.70;50.50;;;;;;5037266;28;20801;-89
2022/02/13 12:38:03;;;;;;;12.63;10.10;;;14.20;48.30;;;;;;5036550;28;20219;-89
2022/02/13 12:40:37;;;;;;;10.97;9.87;;;14.30;46.80;;;;;;5027989;28;20196;-88
2022/02/13 12:43:14;;;;;;;11.30;10.20;;;14.40;46.50;;;;;;5030801;28;20190;-90
2022/02/13 12:45:41;;;;;;;11.00;9.67;;;14.40;46.80;;;;;;5030356;28;20194;-90
2022/02/13 12:48:12;;;;;;;15.03;13.63;;;14.60;47.00;;;;;;5036498;28;20233;-89
2022/02/13 12:50:41;;;;;;;10.93;9.83;;;14.90;45.40;;;;;;5028955;28;20190;-90